Time;durP1;ratioP1;P1;durP2;ratioP2;P2;SDS_P1;SDS_P2;PMS_P1;PMS_P2;Temp;Humidity;BMP_temperature;BMP_pressure;BME280_temperature;BME280_humidity;BME280_pressure;Samples;Min_cycle;Max_cycle;Signal;HPM_P1;HPM_P2
2022/02/04 00:24:35;;;;;;;27.98;12.88;;;;;;;0.89;82.00;92728.53;4971121;28;20069;-92
2022/02/04 00:27:14;;;;;;;28.10;14.13;;;;;;;1.19;82.38;92767.16;4995490;28;20077;-90
2022/02/04 00:30:21;;;;;;;25.38;13.65;;;;;;;1.10;82.17;92758.16;4985859;28;20056;-91
2022/02/04 00:34:01;;;;;;;;;;;;;;;;;;;;;
2022/02/04 00:40:14;;;;;;;27.63;13.57;;;;;;;0.85;82.74;92716.31;4884936;28;20059;-91
2022/02/04 00:43:27;;;;;;;;;;;;;;;;;;;;;
2022/02/04 00:50:01;;;;;;;31.17;14.15;;;;;;;1.08;84.54;92746.50;4970327;28;20046;-90
2022/02/04 00:56:45;;;;;;;;;;;;;;;;;;;;;
2022/02/04 01:26:53;;;;;;;26.95;13.10;;;;;;;0.98;85.38;92755.56;5013873;28;20034;-91
2022/02/04 01:36:08;;;;;;;23.52;14.52;;;;;;;0.67;86.76;92712.00;4975677;28;20577;-92
2022/02/04 01:39:12;;;;;;;25.77;15.80;;;;;;;1.10;87.63;92767.69;4998367;28;20602;-90
2022/02/04 01:42:10;;;;;;;26.45;14.68;;;;;;;0.58;88.04;92696.84;4962328;28;20058;-91
2022/02/04 01:45:30;;;;;;;28.73;14.93;;;;;;;0.60;88.61;92684.53;4994456;28;20050;-90
2022/02/04 01:48:34;;;;;;;34.72;16.25;;;;;;;0.99;88.66;92741.69;4964966;28;20092;-91
2022/02/04 01:51:20;;;;;;;25.13;14.77;;;;;;;0.58;88.63;92683.94;4983491;28;20042;-91
2022/02/04 01:54:37;;;;;;;30.33;14.68;;;;;;;0.77;87.87;92717.41;4990653;28;20042;-91
2022/02/04 02:00:50;;;;;;;25.13;14.93;;;;;;;0.52;86.71;92679.69;4991175;28;20078;-91
2022/02/04 02:03:55;;;;;;;29.33;16.10;;;;;;;0.99;86.89;92746.84;4961529;28;20141;-91
2022/02/04 02:06:48;;;;;;;32.72;17.23;;;;;;;0.97;85.72;92743.69;4960683;28;20045;-91
2022/02/04 02:46:44;;;;;;;28.13;14.63;;;;;;;0.45;84.13;92668.72;4985666;28;20042;-90
2022/02/04 02:52:52;;;;;;;29.58;14.00;;;;;;;0.16;83.59;92629.88;4976353;28;20129;-91
2022/02/04 02:56:38;;;;;;;;;;;;;;;;;;;;;
2022/02/04 03:03:06;;;;;;;29.10;14.63;;;;;;;0.51;84.28;92667.81;4959683;28;20051;-90
2022/02/04 03:06:10;;;;;;;;;;;;;;;;;;;;;
2022/02/04 03:09:17;;;;;;;25.85;14.63;;;;;;;0.22;83.62;92622.25;4993445;28;20062;-91
2022/02/04 03:12:18;;;;;;;30.83;14.95;;;;;;;0.22;83.10;92632.56;4961002;28;20038;-92
2022/02/04 03:15:17;;;;;;;27.25;14.40;;;;;;;0.17;83.08;92623.69;4982996;28;20056;-92
2022/02/04 03:18:11;;;;;;;33.38;15.98;;;;;;;0.43;83.03;92650.13;4965637;28;20042;-91
2022/02/04 03:21:11;;;;;;;;;;;;;;;;;;;;;
2022/02/04 03:24:05;;;;;;;29.87;15.13;;;;;;;0.19;83.41;92613.19;4986227;28;20038;-90
2022/02/04 03:27:22;;;;;;;;;;;;;;;;;;;;;
2022/02/04 03:30:19;;;;;;;;;;;;;;;;;;;;;
2022/02/04 03:33:16;;;;;;;28.98;15.70;;;;;;;0.15;82.92;92617.22;4999186;28;20038;-90
2022/02/04 03:39:18;;;;;;;35.65;16.70;;;;;;;0.44;82.41;92650.91;4986497;28;20058;-90
2022/02/04 03:42:35;;;;;;;;;;;;;;;;;;;;;
2022/02/04 03:45:37;;;;;;;;;;;;;;;;;;;;;
2022/02/04 03:51:50;;;;;;;;;;;;;;;;;;;;;
2022/02/04 03:55:32;;;;;;;31.40;16.13;;;;;;;0.48;81.37;92668.25;4974814;28;20389;-91
2022/02/04 03:58:07;;;;;;;27.85;15.18;;;;;;;0.05;81.83;92598.94;4979866;28;20038;-91
2022/02/04 04:01:17;;;;;;;;;;;;;;;;;;;;;
2022/02/04 04:03:52;;;;;;;31.60;15.13;;;;;;;0.08;81.99;92619.09;4965540;28;20046;-91
2022/02/04 04:06:50;;;;;;;;;;;;;;;;;;;;;
2022/02/04 04:09:59;;;;;;;34.60;15.98;;;;;;;0.16;82.03;92624.72;4995586;28;20038;-91
2022/02/04 04:12:42;;;;;;;35.50;15.88;;;;;;;-0.03;81.41;92592.31;4979327;28;20502;-90
2022/02/04 04:19:26;;;;;;;;;;;;;;;;;;;;;
2022/02/04 04:22:23;;;;;;;;;;;;;;;0.40;80.61;92651.31;4996620;28;20054;-91
2022/02/04 04:25:37;;;;;;;33.90;14.55;;;;;;;-0.04;81.00;92588.16;4981241;28;19918;-91
2022/02/04 04:28:25;;;;;;;32.20;16.95;;;;;;;0.19;80.64;92629.44;4988954;28;20133;-91
2022/02/04 04:31:23;;;;;;;35.88;15.68;;;;;;;0.03;81.17;92612.03;5014530;28;20410;-90
2022/02/04 04:34:25;;;;;;;30.80;15.73;;;;;;;0.19;80.66;92634.56;4979851;28;20102;-91
2022/02/04 04:37:20;;;;;;;32.95;15.45;;;;;;;-0.15;80.83;92576.03;4985396;28;20045;-91
2022/02/04 04:46:42;;;;;;;30.33;15.88;;;;;;;-0.15;81.16;92571.69;4996260;28;20277;-92
2022/02/04 05:29:33;;;;;;;36.42;16.38;;;;;;;-0.25;81.91;92541.34;4991183;28;20048;-88
2022/02/04 05:32:12;;;;;;;37.53;16.15;;;;;;;-0.29;82.35;92540.19;4977493;28;20104;-88
2022/02/04 05:35:14;;;;;;;42.53;18.05;;;;;;;-0.19;82.54;92551.75;4975927;28;20495;-88
2022/02/04 05:37:57;;;;;;;31.63;17.23;;;;;;;-0.21;83.03;92552.72;4976688;28;20048;-88
2022/02/04 05:40:40;;;;;;;31.35;16.83;;;;;;;-0.22;83.34;92551.19;4974529;28;20471;-88
2022/02/04 05:43:44;;;;;;;34.72;17.30;;;;;;;0.30;82.83;92629.69;4962624;28;20042;-89
2022/02/04 05:46:29;;;;;;;33.20;17.98;;;;;;;-0.13;82.40;92556.03;4955767;28;20514;-88
2022/02/04 05:49:16;;;;;;;32.88;17.23;;;;;;;0.17;82.72;92603.09;4978370;28;20038;-89
2022/02/04 05:58:22;;;;;;;30.02;16.30;;;;;;;0.36;83.30;92639.91;4992524;28;20100;-89
2022/02/04 06:04:31;;;;;;;28.25;15.70;;;;;;;-0.18;83.83;92566.97;5000016;28;20031;-89
2022/02/04 06:24:14;;;;;;;33.08;17.15;;;;;;;0.36;84.68;92657.13;4982032;28;20041;-88
2022/02/04 06:26:40;;;;;;;35.88;18.25;;;;;;;0.28;84.18;92645.34;4978091;28;20041;-88
2022/02/04 06:29:07;;;;;;;37.22;17.40;;;;;;;0.32;83.64;92656.78;4978248;28;20411;-88
2022/02/04 06:31:32;;;;;;;33.00;17.75;;;;;;;0.30;84.28;92665.75;4993360;28;20484;-87
2022/02/04 06:33:58;;;;;;;33.75;18.60;;;;;;;0.24;83.39;92661.47;4994647;28;20044;-87
2022/02/04 06:36:24;;;;;;;37.30;18.67;;;;;;;0.30;83.98;92666.53;4990968;28;20038;-87
2022/02/04 06:38:57;;;;;;;35.55;17.85;;;;;;;0.00;83.68;92625.34;4975130;28;20514;-87
2022/02/04 06:41:28;;;;;;;32.15;17.30;;;;;;;0.22;84.01;92655.75;4980709;28;20042;-86
2022/02/04 06:44:06;;;;;;;;;;;;;;;;;;;;;
2022/02/04 06:46:34;;;;;;;33.85;17.02;;;;;;;0.03;84.37;92629.25;4996250;28;20037;-86
2022/02/04 06:49:10;;;;;;;36.78;16.63;;;;;;;0.05;84.07;92632.41;4994004;28;20033;-85
2022/02/04 06:52:09;;;;;;;;;;;;;;;;;;;;;
2022/02/04 06:54:35;;;;;;;37.42;18.20;;;;;;;-0.06;83.19;92608.19;5000277;28;20034;-86
2022/02/04 06:57:06;;;;;;;39.70;17.95;;;;;;;0.40;83.30;92669.34;4976481;28;20051;-87
2022/02/04 06:59:46;;;;;;;34.60;17.92;;;;;;;-0.10;83.03;92589.03;4978646;28;20034;-86
2022/02/04 07:02:27;;;;;;;34.53;16.52;;;;;;;-0.01;82.51;92592.88;4976745;28;20492;-86
2022/02/04 07:05:14;;;;;;;31.73;16.63;;;;;;;0.28;82.82;92629.13;4999839;28;20026;-87
2022/02/04 07:08:03;;;;;;;36.72;17.73;;;;;;;0.38;82.45;92643.03;4982982;28;20048;-86
2022/02/04 07:10:55;;;;;;;31.13;16.85;;;;;;;0.32;82.52;92615.59;5002489;28;20049;-86
2022/02/04 07:16:36;;;;;;;33.67;17.60;;;;;;;0.67;81.05;92635.47;5000211;28;20046;-87
2022/02/04 07:21:46;;;;;;;36.55;17.60;;;;;;;4.09;69.66;92626.16;4994890;28;20117;-86
2022/02/04 07:24:12;;;;;;;34.38;17.55;;;;;;;5.57;65.50;92639.59;5015123;28;20113;-87
2022/02/04 07:26:38;;;;;;;31.85;17.02;;;;;;;6.87;61.29;92646.56;5013351;28;20112;-88
2022/02/04 07:29:03;;;;;;;33.72;18.17;;;;;;;7.91;58.47;92642.84;4985689;28;20064;-87
2022/02/04 07:31:33;;;;;;;36.72;18.52;;;;;;;8.99;54.44;92639.75;4992385;28;20480;-87
2022/02/04 07:34:19;;;;;;;30.92;16.80;;;;;;;9.94;52.91;92628.69;4963022;28;20053;-87
2022/02/04 07:42:13;;;;;;;28.67;16.25;;;;;;;12.96;43.65;92622.25;5004583;28;20057;-89
2022/02/04 07:44:38;;;;;;;29.80;16.80;;;;;;;13.91;41.76;92625.50;4978934;28;20438;-87
2022/02/04 07:47:04;;;;;;;32.03;17.17;;;;;;;14.52;39.76;92646.81;4971651;28;20367;-87
2022/02/04 07:49:30;;;;;;;34.53;17.77;;;;;;;15.12;39.44;92621.66;5006855;28;20609;-87
2022/02/04 07:51:56;;;;;;;32.47;16.77;;;;;;;15.87;36.73;92595.00;4978967;28;20066;-88
2022/02/04 07:54:21;;;;;;;32.83;16.65;;;;;;;16.76;34.63;92633.94;4995818;28;20034;-87
2022/02/04 07:56:47;;;;;;;31.00;18.10;;;;;;;17.37;33.52;92629.00;4977573;28;20089;-87
2022/02/04 07:59:13;;;;;;;32.42;17.42;;;;;;;17.41;32.68;92629.13;4971723;28;20038;-88
2022/02/04 08:01:38;;;;;;;28.83;17.50;;;;;;;17.47;32.24;92627.81;4989066;28;20432;-87
2022/02/04 08:04:15;;;;;;;32.15;17.88;;;;;;;18.37;31.94;92625.50;5014765;28;20518;-87
2022/02/04 08:06:46;;;;;;;28.90;17.45;;;;;;;19.03;29.95;92614.69;4976598;28;20038;-87
2022/02/04 08:09:22;;;;;;;27.33;17.15;;;;;;;19.86;28.98;92625.69;4984175;28;20038;-87
2022/02/04 08:14:43;;;;;;;25.90;16.55;;;;;;;17.82;30.71;92609.00;4992674;28;20049;-87
2022/02/04 08:32:51;;;;;;;27.02;15.50;;;;;;;21.65;25.10;92626.31;5011339;28;20132;-89
2022/02/04 08:56:15;;;;;;;31.90;18.42;;;;;;;14.25;36.93;92618.84;4979024;28;20133;-88
2022/02/04 08:58:53;;;;;;;28.95;17.30;;;;;;;13.51;38.95;92636.00;4961673;28;20026;-86
2022/02/04 09:01:28;;;;;;;31.00;16.83;;;;;;;13.21;38.71;92631.41;4981363;28;20133;-86
2022/02/04 09:04:05;;;;;;;31.33;17.25;;;;;;;12.95;40.35;92639.09;4961344;28;20140;-86
2022/02/04 09:06:38;;;;;;;31.08;17.00;;;;;;;13.32;39.13;92595.97;4993556;28;20060;-87
2022/02/04 09:09:10;;;;;;;30.05;17.02;;;;;;;12.98;40.00;92634.03;4977600;28;20040;-87
2022/02/04 09:16:57;;;;;;;32.50;18.52;;;;;;;12.73;40.98;92626.72;5013604;28;20042;-87
2022/02/04 09:19:27;;;;;;;31.88;16.95;;;;;;;12.67;40.64;92613.66;4981693;28;20038;-88
2022/02/04 09:24:22;;;;;;;33.03;18.13;;;;;;;12.58;40.51;92620.69;4979968;28;20498;-87
2022/02/04 09:26:48;;;;;;;34.10;17.85;;;;;;;12.46;42.50;92628.31;4996560;28;20045;-86
2022/02/04 09:29:15;;;;;;;36.10;18.40;;;;;;;12.69;41.06;92631.75;4980234;28;20053;-87
2022/02/04 09:31:40;;;;;;;31.02;17.35;;;;;;;12.69;42.10;92632.53;4986810;28;20049;-87
2022/02/04 09:34:07;;;;;;;31.13;18.00;;;;;;;13.06;41.89;92619.38;4979462;28;20026;-89
2022/02/04 09:36:34;;;;;;;31.83;17.17;;;;;;;13.68;40.75;92614.25;4977915;28;20041;-89
2022/02/04 09:39:01;;;;;;;30.30;17.25;;;;;;;13.09;39.62;92622.22;4996744;28;20049;-87
2022/02/04 09:41:27;;;;;;;29.35;17.52;;;;;;;12.02;42.90;92609.47;4964500;28;20053;-87
2022/02/04 09:43:53;;;;;;;29.63;17.42;;;;;;;12.17;42.78;92626.75;4961030;28;20050;-87
2022/02/04 09:46:19;;;;;;;33.35;18.33;;;;;;;11.96;44.02;92612.47;4986036;28;20510;-87
2022/02/04 09:48:50;;;;;;;28.40;17.75;;;;;;;13.05;41.04;92623.88;4976519;28;20034;-87
2022/02/04 09:51:20;;;;;;;31.95;17.83;;;;;;;13.20;40.04;92628.00;4976431;28;20038;-87
2022/02/04 10:12:58;;;;;;;31.52;16.58;;;;;;;10.05;47.58;92633.81;4991970;28;20048;-86
2022/02/04 10:15:51;;;;;;;30.50;16.30;;;;;;;10.26;47.40;92640.38;4976296;28;20030;-87
2022/02/04 10:18:31;;;;;;;30.10;16.98;;;;;;;10.34;46.87;92620.69;4976172;28;20069;-87
2022/02/04 10:21:10;;;;;;;31.65;16.90;;;;;;;10.73;46.04;92627.50;4987030;28;20029;-87
2022/02/04 10:23:49;;;;;;;26.00;15.82;;;;;;;10.75;47.00;92633.25;4989908;28;20498;-86
2022/02/04 10:26:16;;;;;;;29.52;17.23;;;;;;;10.86;46.42;92621.56;4991938;28;20037;-86
2022/02/04 10:28:43;;;;;;;27.33;17.15;;;;;;;10.76;47.22;92608.59;4975778;28;20080;-87
2022/02/04 10:31:20;;;;;;;33.50;18.77;;;;;;;11.52;45.84;92627.63;4976432;28;20037;-87
2022/02/04 10:34:24;;;;;;;32.35;18.05;;;;;;;11.38;44.82;92632.06;4993656;28;20048;-87
2022/02/04 10:37:36;;;;;;;28.60;16.58;;;;;;;11.32;44.71;92607.75;4992236;28;20050;-88
2022/02/04 11:01:29;;;;;;;29.20;17.08;;;;;;;10.40;46.06;92573.25;4986031;28;20128;-86
2022/02/04 11:04:00;;;;;;;30.80;17.60;;;;;;;10.67;47.49;92597.22;4997380;28;20034;-86
2022/02/04 11:06:46;;;;;;;31.60;18.08;;;;;;;11.25;45.02;92587.16;4985233;28;20096;-89
2022/02/04 11:33:49;;;;;;;32.83;17.48;;;;;;;10.04;47.75;92553.78;5002629;28;20048;-85
2022/02/04 11:47:58;;;;;;;28.25;15.88;;;;;;;10.77;45.55;92523.78;4943758;29;20047;-85
2022/02/04 11:54:18;;;;;;;30.55;16.80;;;;;;;10.30;46.19;92491.50;4986827;28;20042;-87
2022/02/04 11:56:20;;;;;;;30.20;16.80;;;;;;;10.51;46.23;92526.75;4995620;28;20077;-86
2022/02/04 11:59:02;;;;;;;26.63;15.75;;;;;;;10.05;47.31;92516.13;5012968;28;20057;-86
2022/02/04 12:01:43;;;;;;;29.10;16.58;;;;;;;10.26;46.55;92529.72;4994034;28;20077;-86
2022/02/04 12:04:23;;;;;;;29.15;15.35;;;;;;;10.08;46.81;92513.72;4977102;28;20538;-89
2022/02/04 12:06:49;;;;;;;28.42;16.35;;;;;;;9.31;49.66;92495.53;4972768;28;20044;-89
2022/02/04 12:09:39;;;;;;;28.90;15.43;;;;;;;9.81;48.03;92509.09;4990066;28;20026;-88
2022/02/04 12:12:05;;;;;;;27.50;15.05;;;;;;;9.17;49.55;92508.50;4996579;28;20407;-88
2022/02/04 12:14:33;;;;;;;29.65;16.20;;;;;;;9.61;48.55;92494.41;4980038;28;20052;-88
2022/02/04 12:17:04;;;;;;;30.90;15.48;;;;;;;9.16;49.85;92510.31;5004275;28;20559;-88
2022/02/04 12:19:43;;;;;;;29.55;16.05;;;;;;;9.67;48.26;92508.22;4977162;28;20125;-89
2022/02/04 12:22:10;;;;;;;25.73;14.02;;;;;;;9.21;48.23;92464.28;4998574;28;20037;-88
2022/02/04 12:24:42;;;;;;;26.85;15.07;;;;;;;9.28;48.97;92486.44;4989561;28;20038;-88
2022/02/04 12:27:27;;;;;;;28.30;15.20;;;;;;;10.09;47.13;92483.91;5008615;28;20026;-90
2022/02/04 12:29:53;;;;;;;26.85;15.00;;;;;;;9.88;48.19;92483.38;4991409;28;20057;-89
2022/02/04 12:32:19;;;;;;;25.50;15.02;;;;;;;10.16;47.16;92473.84;4977360;28;20495;-89
2022/02/04 12:34:47;;;;;;;28.92;15.40;;;;;;;10.28;46.45;92473.41;4961615;28;20104;-88
2022/02/04 12:37:16;;;;;;;26.30;15.13;;;;;;;10.04;47.38;92476.09;4978923;28;20120;-88
2022/02/04 12:39:41;;;;;;;26.33;13.88;;;;;;;9.97;46.55;92473.88;4977612;28;20060;-89
2022/02/04 12:42:09;;;;;;;23.88;13.50;;;;;;;9.64;47.48;92475.59;4971184;28;20438;-89
2022/02/04 12:44:38;;;;;;;31.92;15.15;;;;;;;9.67;47.67;92477.63;4981148;28;20050;-88
2022/02/04 12:47:07;;;;;;;26.65;14.15;;;;;;;9.62;47.65;92456.78;4978417;28;20042;-88
2022/02/04 12:49:34;;;;;;;25.17;14.60;;;;;;;10.08;46.82;92461.41;4985745;28;20038;-88
2022/02/04 12:52:14;;;;;;;27.58;14.27;;;;;;;10.26;46.29;92448.59;4996163;28;20100;-89
2022/02/04 12:57:55;;;;;;;28.73;15.50;;;;;;;9.60;47.76;92456.28;4972081;28;20065;-89
2022/02/04 13:01:55;;;;;;;30.23;15.90;;;;;;;10.16;47.10;92458.16;4980476;28;20111;-88
2022/02/04 13:11:04;;;;;;;29.65;15.73;;;;;;;10.52;45.98;92447.19;5011473;28;20045;-89
2022/02/04 13:13:39;;;;;;;34.42;16.98;;;;;;;9.97;47.13;92446.91;4979578;28;20042;-88
2022/02/04 13:16:08;;;;;;;31.45;17.58;;;;;;;10.42;46.82;92442.09;4995901;28;20152;-88
2022/02/04 13:18:36;;;;;;;30.48;17.88;;;;;;;10.60;46.14;92432.66;4979591;28;20660;-89
2022/02/04 13:21:02;;;;;;;30.02;16.33;;;;;;;10.57;46.33;92435.88;4994021;28;20044;-89
2022/02/04 13:23:30;;;;;;;32.03;16.52;;;;;;;10.37;46.96;92408.94;4978638;28;20124;-89
2022/02/04 13:26:01;;;;;;;29.75;17.23;;;;;;;10.53;47.04;92433.03;4962867;28;20046;-89
2022/02/04 13:28:42;;;;;;;28.48;16.17;;;;;;;10.18;46.63;92382.81;4994629;28;20048;-88
2022/02/04 13:31:24;;;;;;;31.02;16.88;;;;;;;10.04;48.00;92405.50;5007448;28;20038;-89
2022/02/04 13:34:32;;;;;;;26.27;14.75;;;;;;;9.62;49.01;92420.19;4994104;28;20037;-88
2022/02/04 13:37:36;;;;;;;33.40;16.38;;;;;;;9.27;49.46;92396.06;4994091;28;20052;-88
2022/02/04 13:40:19;;;;;;;29.05;16.38;;;;;;;9.69;47.84;92365.72;4991887;28;20065;-88
2022/02/04 13:43:04;;;;;;;;;;;;;;;;;;;;;
2022/02/04 13:45:46;;;;;;;29.17;15.93;;;;;;;9.00;49.54;92378.34;4995618;28;20046;-87
2022/02/04 13:48:34;;;;;;;27.70;15.80;;;;;;;9.40;48.99;92362.47;4996028;28;20049;-88
2022/02/04 13:51:23;;;;;;;30.55;16.17;;;;;;;9.45;48.76;92359.78;4995630;28;20490;-88
2022/02/04 14:03:31;;;;;;;33.80;16.23;;;;;;;9.37;48.50;92348.91;4969853;28;20053;-88
2022/02/04 14:06:28;;;;;;;;;;;;;;;;;;;;;
2022/02/04 14:09:30;;;;;;;30.38;16.27;;;;;;;9.14;49.74;92350.53;4983473;28;20373;-88
2022/02/04 14:12:08;;;;;;;;;;;;;;;;;;;;;
2022/02/04 14:14:34;;;;;;;27.40;14.95;;;;;;;9.65;48.96;92359.50;4983693;28;20607;-87
2022/02/04 14:17:17;;;;;;;;;;;;;;;;;;;;;
2022/02/04 14:19:53;;;;;;;29.60;15.65;;;;;;;9.48;49.25;92354.78;4990784;28;20030;-88
2022/02/04 14:22:22;;;;;;;36.28;16.48;;;;;;;9.15;50.34;92367.72;4976681;28;20065;-89
2022/02/04 14:25:13;;;;;;;29.38;17.38;;;;;;;9.37;49.87;92343.69;5003183;28;20022;-88
2022/02/04 14:27:48;;;;;;;33.92;17.60;;;;;;;9.82;48.88;92360.84;4975601;28;20201;-87
2022/02/04 14:30:22;;;;;;;29.35;16.65;;;;;;;9.21;50.63;92371.06;4992629;28;20031;-88
2022/02/04 14:33:00;;;;;;;30.65;16.05;;;;;;;9.44;49.75;92347.81;4975108;28;20050;-88
2022/02/04 14:35:49;;;;;;;30.70;16.48;;;;;;;8.73;51.07;92331.91;4992016;28;20475;-88
2022/02/04 15:02:52;;;;;;;32.05;17.88;;;;;;;9.09;51.88;92399.41;4994157;28;20499;-87
2022/02/04 15:05:21;;;;;;;32.08;17.40;;;;;;;9.35;51.62;92392.84;4977629;28;20042;-88
2022/02/04 15:07:49;;;;;;;30.83;17.08;;;;;;;9.30;51.61;92394.72;4989950;28;20551;-88
2022/02/04 15:10:30;;;;;;;31.77;17.85;;;;;;;9.03;52.27;92369.19;4978777;28;20045;-87
2022/02/04 15:12:56;;;;;;;33.85;18.08;;;;;;;8.88;52.56;92383.97;4994263;28;20042;-88
2022/02/04 15:15:24;;;;;;;37.03;18.17;;;;;;;9.00;52.14;92374.97;4975138;28;20033;-88
2022/02/04 15:17:54;;;;;;;36.10;17.83;;;;;;;8.88;52.01;92365.69;4927695;28;20046;-88
2022/02/04 15:20:20;;;;;;;29.88;17.42;;;;;;;8.64;52.47;92368.28;4995528;28;20071;-88
2022/02/04 15:22:46;;;;;;;35.78;18.15;;;;;;;8.92;51.88;92374.53;4981386;28;20042;-88
2022/02/04 15:25:18;;;;;;;35.20;18.88;;;;;;;8.43;52.93;92391.19;4979047;28;20030;-88
2022/02/04 15:27:54;;;;;;;32.83;17.67;;;;;;;8.44;52.56;92377.06;4979366;28;20702;-87
2022/02/04 15:30:25;;;;;;;32.83;17.60;;;;;;;8.68;52.18;92363.28;4979867;28;20038;-88
2022/02/04 15:32:51;;;;;;;36.47;17.83;;;;;;;8.64;52.07;92344.03;4981373;28;20384;-89
2022/02/04 15:35:17;;;;;;;29.83;17.40;;;;;;;9.04;50.84;92384.56;4998430;28;20133;-89
2022/02/04 15:37:42;;;;;;;33.90;18.23;;;;;;;9.17;50.83;92383.13;4998797;28;20042;-87
2022/02/04 15:40:09;;;;;;;34.20;17.33;;;;;;;8.72;51.49;92382.56;4998752;28;20034;-88
2022/02/04 15:42:37;;;;;;;34.83;17.15;;;;;;;8.73;51.51;92363.25;4994677;28;20043;-87
2022/02/04 15:45:51;;;;;;;34.72;17.23;;;;;;;8.85;50.93;92374.09;4997771;28;20030;-87
2022/02/04 15:48:00;;;;;;;29.52;16.27;;;;;;;8.49;52.21;92381.50;5013620;28;20065;-88
2022/02/04 15:50:38;;;;;;;33.72;18.17;;;;;;;8.40;52.29;92376.09;4992535;28;20044;-90
2022/02/04 16:00:57;;;;;;;38.67;17.92;;;;;;;7.92;53.72;92381.94;4995261;28;20027;-89
2022/02/04 16:05:57;;;;;;;33.38;16.17;;;;;;;7.64;53.95;92362.56;4984134;28;20052;-88
2022/02/04 16:08:23;;;;;;;32.38;16.20;;;;;;;7.57;54.45;92366.53;4994584;28;20038;-88
2022/02/04 16:13:28;;;;;;;31.55;17.23;;;;;;;7.12;54.94;92322.22;4981581;28;20041;-88
2022/02/04 16:15:59;;;;;;;31.95;16.48;;;;;;;7.33;55.00;92374.19;4999615;28;20120;-89
2022/02/04 16:18:30;;;;;;;31.07;17.13;;;;;;;7.26;55.53;92380.47;4982373;28;20132;-88
2022/02/04 16:21:10;;;;;;;33.75;16.35;;;;;;;7.12;55.65;92384.72;4982141;28;20068;-88
2022/02/04 16:24:15;;;;;;;31.25;17.38;;;;;;;6.90;56.30;92363.44;4996386;28;20057;-89
2022/02/04 16:26:36;;;;;;;30.77;15.80;;;;;;;6.87;57.12;92383.75;4992949;28;20058;-87
2022/02/04 16:29:01;;;;;;;34.78;16.77;;;;;;;6.62;57.27;92360.38;4979607;28;20069;-88
2022/02/04 16:31:27;;;;;;;36.17;16.83;;;;;;;6.61;57.86;92383.03;4978073;28;20038;-88
2022/02/04 16:33:52;;;;;;;32.33;16.35;;;;;;;6.50;58.22;92391.13;4977344;28;20066;-89
2022/02/04 16:36:21;;;;;;;33.58;16.80;;;;;;;6.34;58.49;92388.53;4977646;28;20088;-91
2022/02/04 16:38:53;;;;;;;33.90;16.45;;;;;;;6.16;58.94;92381.28;4961589;28;20073;-89
2022/02/04 16:41:30;;;;;;;31.10;17.73;;;;;;;6.18;59.62;92400.75;4993973;28;20046;-87
2022/02/04 16:43:57;;;;;;;30.92;16.83;;;;;;;5.99;59.74;92387.53;4993178;28;20022;-87
2022/02/04 16:46:23;;;;;;;38.95;18.45;;;;;;;5.92;60.07;92394.78;5014709;28;20029;-87
2022/02/04 16:48:48;;;;;;;32.08;17.48;;;;;;;5.78;60.03;92370.31;4980317;28;20044;-87
2022/02/04 16:51:14;;;;;;;33.20;17.42;;;;;;;5.86;60.47;92398.41;4961545;28;20041;-87
2022/02/04 16:53:43;;;;;;;30.60;17.25;;;;;;;5.60;60.62;92374.97;4992452;28;20053;-87
2022/02/04 16:56:08;;;;;;;33.53;17.83;;;;;;;5.70;61.00;92405.41;4994305;28;20038;-88
2022/02/04 16:58:34;;;;;;;38.78;16.90;;;;;;;5.71;60.99;92400.97;5013508;28;20438;-87
2022/02/04 17:01:19;;;;;;;31.55;16.70;;;;;;;5.25;61.37;92365.31;5008238;28;20038;-87
2022/02/04 17:03:51;;;;;;;30.58;16.83;;;;;;;4.94;61.39;92333.31;4962294;28;20096;-86
2022/02/04 17:06:20;;;;;;;42.58;21.15;;;;;;;4.76;62.07;92318.97;4970465;28;20045;-86
2022/02/04 17:08:53;;;;;;;30.17;16.42;;;;;;;4.98;62.16;92360.31;4995842;28;20030;-86
2022/02/04 17:11:22;;;;;;;35.90;17.90;;;;;;;4.95;62.60;92368.56;4996263;28;20038;-86
2022/02/04 17:13:51;;;;;;;35.70;18.10;;;;;;;5.10;62.61;92412.75;4976322;28;20555;-86
2022/02/04 17:16:17;;;;;;;32.17;18.02;;;;;;;4.53;62.95;92333.16;4960695;28;20058;-86
2022/02/04 17:18:46;;;;;;;36.42;18.48;;;;;;;4.78;63.21;92387.72;4960461;28;20050;-86
2022/02/04 17:21:13;;;;;;;34.33;17.88;;;;;;;4.45;63.31;92344.00;4960558;28;20038;-86
2022/02/04 17:23:43;;;;;;;34.00;16.80;;;;;;;4.55;63.67;92375.16;4984272;28;20023;-86
2022/02/04 17:26:15;;;;;;;32.08;17.92;;;;;;;4.57;64.16;92380.84;4979325;28;20152;-87
2022/02/04 17:37:34;;;;;;;;;;;;;;;;;;;;;
2022/02/04 17:40:58;;;;;;;42.75;19.60;;;;;;;4.12;64.68;92371.78;4877124;29;20143;-88
2022/02/04 17:43:45;;;;;;;34.60;17.33;;;;;;;4.22;64.92;92392.56;4860028;29;20526;-89
2022/02/04 17:46:32;;;;;;;29.35;15.05;;;;;;;3.95;65.09;92364.16;4875611;29;20056;-88
2022/02/04 17:52:23;;;;;;;38.67;18.10;;;;;;;4.05;65.55;92400.47;4984514;28;20042;-87
2022/02/04 17:55:18;;;;;;;35.83;17.00;;;;;;;4.03;65.76;92396.56;4973091;28;20091;-87
2022/02/04 17:57:54;;;;;;;29.60;14.77;;;;;;;3.82;65.76;92386.06;4995888;28;20042;-88
2022/02/04 18:06:57;;;;;;;;;;;;;;;4.03;66.16;92432.84;4983658;28;20042;-88
2022/02/04 18:10:41;;;;;;;27.83;14.63;;;;;;;3.58;66.36;92369.28;4973528;28;19917;-88
2022/02/04 18:13:09;;;;;;;32.35;15.85;;;;;;;3.43;66.77;92357.78;4982721;28;20031;-86
2022/02/04 18:16:18;;;;;;;28.77;15.40;;;;;;;3.36;67.01;92359.78;4975656;28;20038;-87
2022/02/04 18:19:10;;;;;;;31.10;15.88;;;;;;;3.51;66.61;92393.56;4978283;28;20129;-86
2022/02/04 18:23:30;;;;;;;;;;;;;;;;;;;;;
2022/02/04 18:38:38;;;;;;;36.40;17.23;;;;;;;2.98;68.69;92368.44;4886892;29;20127;-87
2022/02/04 18:46:06;;;;;;;;;;;;;;;;;;;;;
2022/02/04 19:05:54;;;;;;;;;;;;;;;;;;;;;
2022/02/04 19:21:20;;;;;;;35.13;17.70;;;;;;;2.81;72.71;92456.41;4929708;29;20051;-87
2022/02/04 19:25:05;;;;;;;37.28;16.88;;;;;;;2.61;72.60;92444.78;4915536;29;20404;-88
2022/02/04 19:28:36;;;;;;;35.58;17.98;;;;;;;2.50;72.63;92425.00;4894359;29;20125;-87
2022/02/04 19:32:03;;;;;;;37.15;17.42;;;;;;;2.23;72.50;92386.91;4883555;29;20075;-88
2022/02/04 19:39:06;;;;;;;;;;;;;;;;;;;;;
2022/02/04 19:45:45;;;;;;;;;;;;;;;;;;;;;
2022/02/04 19:48:59;;;;;;;40.53;18.15;;;;;;;2.14;74.29;92406.41;4901391;29;20036;-87
2022/02/04 20:12:41;;;;;;;34.40;17.92;;;;;;;1.94;76.51;92401.72;4884930;29;20044;-87
2022/02/04 20:25:08;;;;;;;43.20;20.70;;;;;;;2.22;76.67;92465.38;5007895;28;20052;-87
2022/02/04 20:27:39;;;;;;;41.50;20.75;;;;;;;2.32;76.75;92479.47;4997503;28;20479;-87
2022/02/04 20:30:05;;;;;;;43.53;22.17;;;;;;;2.30;77.05;92479.72;4968642;28;20046;-87
2022/02/04 20:32:33;;;;;;;46.78;21.83;;;;;;;2.27;77.74;92473.25;4971442;28;20049;-89
2022/02/04 20:35:01;;;;;;;47.90;21.50;;;;;;;2.37;77.94;92497.66;4993301;28;20042;-88
2022/02/04 20:37:38;;;;;;;45.53;22.13;;;;;;;2.20;77.70;92471.81;4997997;28;20032;-87
2022/02/04 20:40:25;;;;;;;41.20;21.20;;;;;;;1.91;77.53;92434.94;5010822;28;20034;-87
2022/02/04 20:43:09;;;;;;;39.78;20.42;;;;;;;2.01;77.89;92442.88;4993074;28;20045;-88
2022/02/04 20:45:42;;;;;;;46.83;21.55;;;;;;;1.98;78.03;92446.69;5007352;28;20037;-86
2022/02/04 20:48:30;;;;;;;47.38;21.27;;;;;;;1.88;77.55;92425.88;4994194;28;20026;-87
2022/02/04 20:51:07;;;;;;;44.50;19.08;;;;;;;1.74;77.98;92416.88;4986181;28;20082;-88
2022/02/04 20:53:56;;;;;;;39.58;19.70;;;;;;;1.75;78.27;92413.28;4975918;28;20050;-86
2022/02/04 20:56:25;;;;;;;40.67;19.92;;;;;;;1.77;77.23;92413.81;4980854;28;20078;-86
2022/02/04 20:59:06;;;;;;;;;;;;;;;;;;;;;
2022/02/04 21:01:39;;;;;;;40.88;21.08;;;;;;;1.80;77.47;92436.56;4996548;28;20033;-87
2022/02/04 21:04:19;;;;;;;40.53;20.60;;;;;;;1.88;77.77;92444.72;4996072;28;20045;-87
2022/02/04 21:07:00;;;;;;;45.78;21.58;;;;;;;1.85;77.95;92442.63;4981097;28;20041;-86
2022/02/04 21:15:39;;;;;;;42.22;21.02;;;;;;;1.96;78.12;92471.16;5034085;28;20033;-88
2022/02/04 21:18:10;;;;;;;;;;;;;;;2.11;78.59;92488.72;4974366;28;20045;-86
2022/02/04 21:20:48;;;;;;;39.63;19.17;;;;;;;1.82;78.52;92450.84;4976970;28;19918;-87
2022/02/04 21:23:44;;;;;;;42.83;20.63;;;;;;;1.78;78.19;92428.28;4961674;28;20460;-86
2022/02/04 21:26:17;;;;;;;38.83;19.10;;;;;;;1.96;78.59;92471.97;4975468;28;20048;-87
2022/02/04 21:28:59;;;;;;;41.50;20.98;;;;;;;1.82;78.19;92447.44;4989472;28;20049;-88
2022/02/04 21:31:38;;;;;;;;;;;;;;;2.09;78.06;92491.53;5010580;28;20034;-86